sensor_id;sensor_type;location;lat;lon;timestamp;pressure;altitude;pressure_sealevel;temperature;humidity
48555;BME280;34336;48.270;16.716;2023-02-26T00:00:09;109325.25;;;18.16;76.76
48555;BME280;34336;48.270;16.716;2023-02-26T00:02:41;109325.25;;;18.16;77.11
48555;BME280;34336;48.270;16.716;2023-02-26T00:05:08;109325.25;;;18.16;76.92
48555;BME280;34336;48.270;16.716;2023-02-26T00:07:36;109325.25;;;18.16;76.11
48555;BME280;34336;48.270;16.716;2023-02-26T00:10:05;109325.25;;;18.16;76.20
48555;BME280;34336;48.270;16.716;2023-02-26T00:12:33;109325.25;;;18.16;75.67
48555;BME280;34336;48.270;16.716;2023-02-26T00:15:01;109325.25;;;18.16;75.77
48555;BME280;34336;48.270;16.716;2023-02-26T00:18:06;109325.25;;;18.16;75.48
48555;BME280;34336;48.270;16.716;2023-02-26T00:20:34;109325.25;;;18.16;75.54
48555;BME280;34336;48.270;16.716;2023-02-26T00:23:02;109325.25;;;18.16;75.58
48555;BME280;34336;48.270;16.716;2023-02-26T00:25:29;109325.25;;;18.16;74.89
48555;BME280;34336;48.270;16.716;2023-02-26T00:27:56;109325.25;;;18.16;74.52
48555;BME280;34336;48.270;16.716;2023-02-26T00:30:23;109325.25;;;18.16;73.50
48555;BME280;34336;48.270;16.716;2023-02-26T00:32:50;109325.25;;;18.16;73.26
48555;BME280;34336;48.270;16.716;2023-02-26T00:35:17;109325.25;;;18.16;73.46
48555;BME280;34336;48.270;16.716;2023-02-26T00:38:02;109325.25;;;18.16;74.43
48555;BME280;34336;48.270;16.716;2023-02-26T00:40:47;109325.25;;;18.16;74.63
48555;BME280;34336;48.270;16.716;2023-02-26T00:43:17;109325.25;;;18.16;74.74
48555;BME280;34336;48.270;16.716;2023-02-26T00:48:50;109325.25;;;18.16;75.27
48555;BME280;34336;48.270;16.716;2023-02-26T00:51:29;109325.25;;;18.16;74.74
48555;BME280;34336;48.270;16.716;2023-02-26T00:54:21;109325.25;;;18.16;74.03
48555;BME280;34336;48.270;16.716;2023-02-26T00:56:51;109325.25;;;18.16;73.77
48555;BME280;34336;48.270;16.716;2023-02-26T00:59:19;109325.25;;;18.16;73.53
48555;BME280;34336;48.270;16.716;2023-02-26T01:01:47;109325.25;;;18.16;72.93
48555;BME280;34336;48.270;16.716;2023-02-26T01:04:17;109325.25;;;18.16;73.05
48555;BME280;34336;48.270;16.716;2023-02-26T01:06:47;109325.25;;;18.16;72.59
48555;BME280;34336;48.270;16.716;2023-02-26T01:09:24;109325.25;;;18.16;72.75
48555;BME280;34336;48.270;16.716;2023-02-26T01:11:54;109325.25;;;18.16;71.83
48555;BME280;34336;48.270;16.716;2023-02-26T01:14:24;109325.25;;;18.16;72.12
48555;BME280;34336;48.270;16.716;2023-02-26T01:17:01;109325.25;;;18.16;71.65
48555;BME280;34336;48.270;16.716;2023-02-26T01:22:16;109325.25;;;18.16;72.20
48555;BME280;34336;48.270;16.716;2023-02-26T01:24:47;109325.25;;;18.16;71.91
48555;BME280;34336;48.270;16.716;2023-02-26T01:27:15;109325.25;;;18.16;71.99
48555;BME280;34336;48.270;16.716;2023-02-26T01:29:42;109325.25;;;18.16;72.44
48555;BME280;34336;48.270;16.716;2023-02-26T01:32:24;109325.25;;;18.16;71.58
48555;BME280;34336;48.270;16.716;2023-02-26T01:43:30;109325.25;;;18.16;71.40
48555;BME280;34336;48.270;16.716;2023-02-26T01:46:04;109325.25;;;18.16;71.48
48555;BME280;34336;48.270;16.716;2023-02-26T01:48:48;109325.25;;;18.16;71.75
48555;BME280;34336;48.270;16.716;2023-02-26T01:51:16;109325.25;;;18.16;71.84
48555;BME280;34336;48.270;16.716;2023-02-26T01:53:43;109325.25;;;18.16;71.69
48555;BME280;34336;48.270;16.716;2023-02-26T01:56:15;109325.25;;;18.16;71.59
48555;BME280;34336;48.270;16.716;2023-02-26T01:58:45;109325.25;;;18.16;71.43
48555;BME280;34336;48.270;16.716;2023-02-26T02:01:13;109325.25;;;18.16;71.43
48555;BME280;34336;48.270;16.716;2023-02-26T02:03:41;109325.25;;;18.16;71.27
48555;BME280;34336;48.270;16.716;2023-02-26T02:06:15;109325.25;;;18.16;71.35
48555;BME280;34336;48.270;16.716;2023-02-26T02:08:43;109325.25;;;18.16;71.22
48555;BME280;34336;48.270;16.716;2023-02-26T02:11:11;109325.25;;;18.16;71.17
48555;BME280;34336;48.270;16.716;2023-02-26T02:16:49;109325.25;;;18.16;70.74
48555;BME280;34336;48.270;16.716;2023-02-26T02:25:03;109325.25;;;18.16;70.30
48555;BME280;34336;48.270;16.716;2023-02-26T02:27:42;109325.25;;;18.16;70.34
48555;BME280;34336;48.270;16.716;2023-02-26T02:33:01;109325.25;;;18.16;69.32
48555;BME280;34336;48.270;16.716;2023-02-26T02:35:35;109325.25;;;18.16;69.50
48555;BME280;34336;48.270;16.716;2023-02-26T02:38:10;109325.25;;;18.16;69.23
48555;BME280;34336;48.270;16.716;2023-02-26T02:40:40;109325.25;;;18.16;69.64
48555;BME280;34336;48.270;16.716;2023-02-26T02:43:13;109325.25;;;18.16;69.79
48555;BME280;34336;48.270;16.716;2023-02-26T02:45:48;109325.25;;;18.16;69.47
48555;BME280;34336;48.270;16.716;2023-02-26T02:48:32;109325.25;;;18.16;69.72
48555;BME280;34336;48.270;16.716;2023-02-26T02:51:05;109325.25;;;18.16;69.61
48555;BME280;34336;48.270;16.716;2023-02-26T02:53:42;109325.25;;;18.16;69.87
48555;BME280;34336;48.270;16.716;2023-02-26T02:56:23;109325.25;;;18.16;69.33
48555;BME280;34336;48.270;16.716;2023-02-26T02:58:58;109325.25;;;18.16;69.15
48555;BME280;34336;48.270;16.716;2023-02-26T03:01:27;109325.25;;;18.16;69.63
48555;BME280;34336;48.270;16.716;2023-02-26T03:04:06;109325.25;;;18.16;69.84
48555;BME280;34336;48.270;16.716;2023-02-26T03:06:36;109325.25;;;18.16;69.90
48555;BME280;34336;48.270;16.716;2023-02-26T03:09:05;109325.25;;;18.16;69.71
48555;BME280;34336;48.270;16.716;2023-02-26T03:11:33;109325.25;;;18.16;69.74
48555;BME280;34336;48.270;16.716;2023-02-26T03:14:01;109325.25;;;18.16;70.01
48555;BME280;34336;48.270;16.716;2023-02-26T03:22:04;109325.25;;;18.16;70.56
48555;BME280;34336;48.270;16.716;2023-02-26T03:24:57;109325.25;;;18.16;71.25
48555;BME280;34336;48.270;16.716;2023-02-26T03:27:35;109325.25;;;18.16;70.45
48555;BME280;34336;48.270;16.716;2023-02-26T03:35:40;109325.25;;;18.16;70.51
48555;BME280;34336;48.270;16.716;2023-02-26T03:38:14;109325.25;;;18.16;69.82
48555;BME280;34336;48.270;16.716;2023-02-26T03:40:48;109325.25;;;18.16;70.17
48555;BME280;34336;48.270;16.716;2023-02-26T03:43:22;109325.25;;;18.16;70.69
48555;BME280;34336;48.270;16.716;2023-02-26T03:45:53;109325.25;;;18.16;70.12
48555;BME280;34336;48.270;16.716;2023-02-26T03:48:26;109325.25;;;18.16;69.96
48555;BME280;34336;48.270;16.716;2023-02-26T03:51:02;109325.25;;;18.16;69.96
48555;BME280;34336;48.270;16.716;2023-02-26T03:54:11;109325.25;;;18.16;70.22
48555;BME280;34336;48.270;16.716;2023-02-26T03:56:45;109325.25;;;18.16;70.31
48555;BME280;34336;48.270;16.716;2023-02-26T03:59:35;109325.25;;;18.16;70.24
48555;BME280;34336;48.270;16.716;2023-02-26T04:02:33;109325.25;;;18.16;70.19
48555;BME280;34336;48.270;16.716;2023-02-26T04:05:16;109325.25;;;18.16;69.85
48555;BME280;34336;48.270;16.716;2023-02-26T04:07:45;109325.25;;;18.16;70.05
48555;BME280;34336;48.270;16.716;2023-02-26T04:10:16;109325.25;;;18.16;69.26
48555;BME280;34336;48.270;16.716;2023-02-26T04:12:45;109325.25;;;18.16;69.19
48555;BME280;34336;48.270;16.716;2023-02-26T04:15:12;109325.25;;;18.16;69.03
48555;BME280;34336;48.270;16.716;2023-02-26T04:17:39;109325.25;;;18.16;70.06
48555;BME280;34336;48.270;16.716;2023-02-26T04:20:07;109325.25;;;18.16;70.19
48555;BME280;34336;48.270;16.716;2023-02-26T04:22:35;109325.25;;;18.16;70.74
48555;BME280;34336;48.270;16.716;2023-02-26T04:25:02;109325.25;;;18.16;70.42
48555;BME280;34336;48.270;16.716;2023-02-26T04:27:29;109325.25;;;18.16;70.53
48555;BME280;34336;48.270;16.716;2023-02-26T04:29:56;109325.25;;;18.16;70.36
48555;BME280;34336;48.270;16.716;2023-02-26T04:32:23;109325.25;;;18.16;70.64
48555;BME280;34336;48.270;16.716;2023-02-26T04:34:50;109325.25;;;18.16;71.27
48555;BME280;34336;48.270;16.716;2023-02-26T04:37:17;109325.25;;;18.16;71.16
48555;BME280;34336;48.270;16.716;2023-02-26T04:39:44;109325.25;;;18.16;71.83
48555;BME280;34336;48.270;16.716;2023-02-26T04:42:12;109325.25;;;18.16;72.49
48555;BME280;34336;48.270;16.716;2023-02-26T04:44:40;109325.25;;;18.16;72.67
48555;BME280;34336;48.270;16.716;2023-02-26T04:47:07;109325.25;;;18.16;72.81
48555;BME280;34336;48.270;16.716;2023-02-26T04:49:36;109325.25;;;18.16;73.28
48555;BME280;34336;48.270;16.716;2023-02-26T04:52:03;109325.25;;;18.16;73.38
48555;BME280;34336;48.270;16.716;2023-02-26T04:54:30;109325.25;;;18.16;73.96
48555;BME280;34336;48.270;16.716;2023-02-26T04:56:57;109325.25;;;18.16;74.29
48555;BME280;34336;48.270;16.716;2023-02-26T04:59:23;109325.25;;;18.16;74.34
48555;BME280;34336;48.270;16.716;2023-02-26T05:01:50;109325.25;;;18.16;74.55
48555;BME280;34336;48.270;16.716;2023-02-26T05:04:17;109325.25;;;18.16;74.84
48555;BME280;34336;48.270;16.716;2023-02-26T05:06:52;109325.25;;;18.16;75.15
48555;BME280;34336;48.270;16.716;2023-02-26T05:09:19;109325.25;;;18.16;75.36
48555;BME280;34336;48.270;16.716;2023-02-26T05:11:46;109325.25;;;18.16;76.37
48555;BME280;34336;48.270;16.716;2023-02-26T05:14:15;109325.25;;;18.16;75.98
48555;BME280;34336;48.270;16.716;2023-02-26T05:16:45;109325.25;;;18.16;76.37
48555;BME280;34336;48.270;16.716;2023-02-26T05:19:12;109325.25;;;18.16;76.70
48555;BME280;34336;48.270;16.716;2023-02-26T05:21:39;109325.25;;;18.16;77.33
48555;BME280;34336;48.270;16.716;2023-02-26T05:24:06;109325.25;;;18.16;77.55
48555;BME280;34336;48.270;16.716;2023-02-26T05:26:33;109325.25;;;18.16;78.11
48555;BME280;34336;48.270;16.716;2023-02-26T05:29:00;109325.25;;;18.16;79.51
48555;BME280;34336;48.270;16.716;2023-02-26T05:31:27;109325.25;;;18.16;79.83
48555;BME280;34336;48.270;16.716;2023-02-26T05:33:55;109325.25;;;18.16;81.09
48555;BME280;34336;48.270;16.716;2023-02-26T05:36:21;109325.25;;;18.16;81.75
48555;BME280;34336;48.270;16.716;2023-02-26T05:38:49;109325.25;;;18.16;82.66
48555;BME280;34336;48.270;16.716;2023-02-26T05:41:15;109325.25;;;18.16;83.77
48555;BME280;34336;48.270;16.716;2023-02-26T05:43:42;109325.25;;;18.16;85.14
48555;BME280;34336;48.270;16.716;2023-02-26T05:46:09;109325.25;;;18.16;86.01
48555;BME280;34336;48.270;16.716;2023-02-26T05:48:36;109325.25;;;18.16;87.30
48555;BME280;34336;48.270;16.716;2023-02-26T05:51:02;109325.25;;;18.16;87.59
48555;BME280;34336;48.270;16.716;2023-02-26T05:53:29;109325.25;;;18.16;87.90
48555;BME280;34336;48.270;16.716;2023-02-26T05:55:56;109325.25;;;18.16;88.18
48555;BME280;34336;48.270;16.716;2023-02-26T05:58:22;109325.25;;;18.16;88.65
48555;BME280;34336;48.270;16.716;2023-02-26T06:00:49;109325.25;;;18.16;89.15
48555;BME280;34336;48.270;16.716;2023-02-26T06:03:16;109325.25;;;18.16;89.68
48555;BME280;34336;48.270;16.716;2023-02-26T06:05:42;109325.25;;;18.16;89.47
48555;BME280;34336;48.270;16.716;2023-02-26T06:08:09;109325.25;;;18.16;89.87
48555;BME280;34336;48.270;16.716;2023-02-26T06:10:37;109325.25;;;18.16;89.54
48555;BME280;34336;48.270;16.716;2023-02-26T06:13:04;109325.25;;;18.16;89.13
48555;BME280;34336;48.270;16.716;2023-02-26T06:15:31;109325.25;;;18.16;89.20
48555;BME280;34336;48.270;16.716;2023-02-26T06:17:58;109325.25;;;18.16;88.91
48555;BME280;34336;48.270;16.716;2023-02-26T06:20:24;109325.25;;;18.16;88.49
48555;BME280;34336;48.270;16.716;2023-02-26T06:22:51;109325.25;;;18.16;88.86
48555;BME280;34336;48.270;16.716;2023-02-26T06:25:17;109325.25;;;18.16;88.60
48555;BME280;34336;48.270;16.716;2023-02-26T06:27:45;109325.25;;;18.16;87.47
48555;BME280;34336;48.270;16.716;2023-02-26T06:30:11;109325.25;;;18.16;87.94
48555;BME280;34336;48.270;16.716;2023-02-26T06:32:38;109325.25;;;18.16;87.41
48555;BME280;34336;48.270;16.716;2023-02-26T06:35:05;109325.25;;;18.16;87.10
48555;BME280;34336;48.270;16.716;2023-02-26T06:37:32;109325.25;;;18.16;87.61
48555;BME280;34336;48.270;16.716;2023-02-26T06:39:59;109325.25;;;18.16;89.04
48555;BME280;34336;48.270;16.716;2023-02-26T06:42:26;109325.25;;;18.16;90.82
48555;BME280;34336;48.270;16.716;2023-02-26T06:44:52;109325.25;;;18.16;91.13
48555;BME280;34336;48.270;16.716;2023-02-26T06:47:19;109325.25;;;18.16;91.68
48555;BME280;34336;48.270;16.716;2023-02-26T06:49:45;109325.25;;;18.16;92.28
48555;BME280;34336;48.270;16.716;2023-02-26T06:52:12;109325.25;;;18.16;92.44
48555;BME280;34336;48.270;16.716;2023-02-26T06:54:39;109325.25;;;18.16;92.50
48555;BME280;34336;48.270;16.716;2023-02-26T06:57:06;109325.25;;;18.16;93.30
48555;BME280;34336;48.270;16.716;2023-02-26T06:59:32;109325.25;;;18.16;92.57
48555;BME280;34336;48.270;16.716;2023-02-26T07:01:59;109325.25;;;18.16;92.70
48555;BME280;34336;48.270;16.716;2023-02-26T07:04:26;109325.25;;;18.16;92.32
48555;BME280;34336;48.270;16.716;2023-02-26T07:06:52;109325.25;;;18.16;91.13
48555;BME280;34336;48.270;16.716;2023-02-26T07:09:19;109325.25;;;18.16;89.80
48555;BME280;34336;48.270;16.716;2023-02-26T07:11:46;109325.25;;;18.16;87.09
48555;BME280;34336;48.270;16.716;2023-02-26T07:14:14;109325.25;;;18.16;86.01
48555;BME280;34336;48.270;16.716;2023-02-26T07:16:41;109325.25;;;18.16;83.63
48555;BME280;34336;48.270;16.716;2023-02-26T07:19:07;109325.25;;;18.16;82.08
48555;BME280;34336;48.270;16.716;2023-02-26T07:21:34;109325.25;;;18.16;82.13
48555;BME280;34336;48.270;16.716;2023-02-26T07:24:01;109325.25;;;18.16;80.37
48555;BME280;34336;48.270;16.716;2023-02-26T07:26:28;109325.25;;;18.16;77.21
48555;BME280;34336;48.270;16.716;2023-02-26T07:28:54;109325.25;;;18.16;76.37
48555;BME280;34336;48.270;16.716;2023-02-26T07:31:21;109325.25;;;18.16;73.81
48555;BME280;34336;48.270;16.716;2023-02-26T07:33:48;109325.25;;;18.16;72.12
48555;BME280;34336;48.270;16.716;2023-02-26T07:36:15;109325.25;;;18.16;70.16
48555;BME280;34336;48.270;16.716;2023-02-26T07:38:42;109325.25;;;18.16;71.00
48555;BME280;34336;48.270;16.716;2023-02-26T07:41:09;109325.25;;;18.16;70.71
48555;BME280;34336;48.270;16.716;2023-02-26T07:43:35;109325.25;;;18.16;68.81
48555;BME280;34336;48.270;16.716;2023-02-26T07:46:02;109325.25;;;18.16;67.81
48555;BME280;34336;48.270;16.716;2023-02-26T07:48:29;109325.25;;;18.16;67.52
48555;BME280;34336;48.270;16.716;2023-02-26T07:50:56;109325.25;;;18.16;65.02
48555;BME280;34336;48.270;16.716;2023-02-26T07:53:23;109325.25;;;18.16;64.64
48555;BME280;34336;48.270;16.716;2023-02-26T07:55:49;109325.25;;;18.16;64.02
48555;BME280;34336;48.270;16.716;2023-02-26T07:58:16;109325.25;;;18.16;62.63
48555;BME280;34336;48.270;16.716;2023-02-26T08:00:43;109325.25;;;18.16;63.84
48555;BME280;34336;48.270;16.716;2023-02-26T08:03:11;109325.25;;;18.16;63.04
48555;BME280;34336;48.270;16.716;2023-02-26T08:05:37;109325.25;;;18.16;61.92
48555;BME280;34336;48.270;16.716;2023-02-26T08:08:04;109325.25;;;18.16;60.99
48555;BME280;34336;48.270;16.716;2023-02-26T08:10:31;109325.25;;;18.16;60.24
48555;BME280;34336;48.270;16.716;2023-02-26T08:12:58;109325.25;;;18.16;61.26
48555;BME280;34336;48.270;16.716;2023-02-26T08:15:24;109325.25;;;18.16;60.61
48555;BME280;34336;48.270;16.716;2023-02-26T08:17:52;109325.25;;;18.16;60.01
48555;BME280;34336;48.270;16.716;2023-02-26T08:20:19;109325.25;;;18.16;59.74
48555;BME280;34336;48.270;16.716;2023-02-26T08:22:46;109325.25;;;18.16;59.41
48555;BME280;34336;48.270;16.716;2023-02-26T08:25:13;109325.25;;;18.16;59.89
48555;BME280;34336;48.270;16.716;2023-02-26T08:27:39;109325.25;;;18.16;58.46
48555;BME280;34336;48.270;16.716;2023-02-26T08:30:07;109325.25;;;18.16;57.76
48555;BME280;34336;48.270;16.716;2023-02-26T08:32:34;109325.25;;;18.16;55.69
48555;BME280;34336;48.270;16.716;2023-02-26T08:35:01;109325.25;;;18.16;55.03
48555;BME280;34336;48.270;16.716;2023-02-26T08:37:28;109325.25;;;18.16;55.10
48555;BME280;34336;48.270;16.716;2023-02-26T08:39:54;109325.25;;;18.16;55.63
48555;BME280;34336;48.270;16.716;2023-02-26T08:42:21;109325.25;;;18.16;54.22
48555;BME280;34336;48.270;16.716;2023-02-26T08:44:48;109325.25;;;18.16;54.24
48555;BME280;34336;48.270;16.716;2023-02-26T08:47:14;109325.25;;;18.16;53.76
48555;BME280;34336;48.270;16.716;2023-02-26T08:49:53;109325.25;;;18.16;55.82
48555;BME280;34336;48.270;16.716;2023-02-26T08:52:20;109325.25;;;18.16;55.39
48555;BME280;34336;48.270;16.716;2023-02-26T08:54:47;109325.25;;;18.16;54.37
48555;BME280;34336;48.270;16.716;2023-02-26T08:57:17;109325.25;;;18.16;56.82
48555;BME280;34336;48.270;16.716;2023-02-26T08:59:43;109325.25;;;18.16;57.04
48555;BME280;34336;48.270;16.716;2023-02-26T09:02:11;109325.25;;;18.16;57.54
48555;BME280;34336;48.270;16.716;2023-02-26T09:04:38;109325.25;;;18.16;56.05
48555;BME280;34336;48.270;16.716;2023-02-26T09:07:05;109325.25;;;18.16;56.55
48555;BME280;34336;48.270;16.716;2023-02-26T09:09:32;109325.25;;;18.16;55.11
48555;BME280;34336;48.270;16.716;2023-02-26T09:11:59;109325.25;;;18.16;54.73
48555;BME280;34336;48.270;16.716;2023-02-26T09:14:25;109325.25;;;18.16;54.60
48555;BME280;34336;48.270;16.716;2023-02-26T09:16:52;109325.25;;;18.16;54.41
48555;BME280;34336;48.270;16.716;2023-02-26T09:19:19;109325.25;;;18.16;53.55
48555;BME280;34336;48.270;16.716;2023-02-26T09:21:46;109325.25;;;18.16;55.27
48555;BME280;34336;48.270;16.716;2023-02-26T09:24:12;109325.25;;;18.16;53.68
48555;BME280;34336;48.270;16.716;2023-02-26T09:26:40;109325.25;;;18.16;51.36
48555;BME280;34336;48.270;16.716;2023-02-26T09:29:06;109325.25;;;18.16;54.37
48555;BME280;34336;48.270;16.716;2023-02-26T09:31:33;109325.25;;;18.16;52.80
48555;BME280;34336;48.270;16.716;2023-02-26T09:34:00;109325.25;;;18.16;51.65
48555;BME280;34336;48.270;16.716;2023-02-26T09:36:27;109325.25;;;18.16;52.07
48555;BME280;34336;48.270;16.716;2023-02-26T09:38:54;109325.25;;;18.16;53.89
48555;BME280;34336;48.270;16.716;2023-02-26T09:41:27;109325.25;;;18.16;53.18
48555;BME280;34336;48.270;16.716;2023-02-26T09:52:42;109325.25;;;18.16;53.79
48555;BME280;34336;48.270;16.716;2023-02-26T09:55:18;109325.25;;;18.16;53.97
48555;BME280;34336;48.270;16.716;2023-02-26T09:57:51;109325.25;;;18.16;52.83
48555;BME280;34336;48.270;16.716;2023-02-26T10:00:36;109325.25;;;18.16;53.69
48555;BME280;34336;48.270;16.716;2023-02-26T10:13:52;109325.25;;;18.16;52.52
48555;BME280;34336;48.270;16.716;2023-02-26T10:16:26;109325.25;;;18.16;52.68
48555;BME280;34336;48.270;16.716;2023-02-26T10:19:07;109325.25;;;18.16;53.63
48555;BME280;34336;48.270;16.716;2023-02-26T10:21:43;109325.25;;;18.16;52.96
48555;BME280;34336;48.270;16.716;2023-02-26T10:24:17;109325.25;;;18.16;54.21
48555;BME280;34336;48.270;16.716;2023-02-26T10:26:57;109325.25;;;18.16;53.00
48555;BME280;34336;48.270;16.716;2023-02-26T10:29:44;109325.25;;;18.16;53.62
48555;BME280;34336;48.270;16.716;2023-02-26T10:35:19;109325.25;;;18.16;52.25
48555;BME280;34336;48.270;16.716;2023-02-26T10:37:59;109325.25;;;18.16;52.03
48555;BME280;34336;48.270;16.716;2023-02-26T10:40:37;109325.25;;;18.16;53.05
48555;BME280;34336;48.270;16.716;2023-02-26T10:43:27;109325.25;;;18.16;52.42
48555;BME280;34336;48.270;16.716;2023-02-26T10:46:06;109325.25;;;18.16;52.17
48555;BME280;34336;48.270;16.716;2023-02-26T10:51:18;109325.25;;;18.16;52.04
48555;BME280;34336;48.270;16.716;2023-02-26T10:53:46;109325.25;;;18.16;52.36
48555;BME280;34336;48.270;16.716;2023-02-26T10:56:22;109325.25;;;18.16;53.13
48555;BME280;34336;48.270;16.716;2023-02-26T10:58:50;109325.25;;;18.16;52.68
48555;BME280;34336;48.270;16.716;2023-02-26T11:01:22;109325.25;;;18.16;50.12
48555;BME280;34336;48.270;16.716;2023-02-26T11:04:14;109325.25;;;18.16;50.86
48555;BME280;34336;48.270;16.716;2023-02-26T11:06:47;109325.25;;;18.16;52.31
48555;BME280;34336;48.270;16.716;2023-02-26T11:09:31;109325.25;;;18.16;52.97
48555;BME280;34336;48.270;16.716;2023-02-26T11:12:12;109325.25;;;18.16;53.70
48555;BME280;34336;48.270;16.716;2023-02-26T11:14:41;109325.25;;;18.16;54.30
48555;BME280;34336;48.270;16.716;2023-02-26T11:17:20;109325.25;;;18.16;54.13
48555;BME280;34336;48.270;16.716;2023-02-26T11:19:55;109325.25;;;18.16;53.08
48555;BME280;34336;48.270;16.716;2023-02-26T11:22:25;109325.25;;;18.16;52.60
48555;BME280;34336;48.270;16.716;2023-02-26T11:24:53;109325.25;;;18.16;50.30
48555;BME280;34336;48.270;16.716;2023-02-26T11:27:30;109325.25;;;18.16;50.75
48555;BME280;34336;48.270;16.716;2023-02-26T11:30:03;109325.25;;;18.16;50.72
48555;BME280;34336;48.270;16.716;2023-02-26T11:32:36;109325.25;;;18.16;50.88
48555;BME280;34336;48.270;16.716;2023-02-26T11:35:07;109325.25;;;18.16;50.38
48555;BME280;34336;48.270;16.716;2023-02-26T11:37:39;109325.25;;;18.16;49.17
48555;BME280;34336;48.270;16.716;2023-02-26T11:40:16;109325.25;;;18.16;48.89
48555;BME280;34336;48.270;16.716;2023-02-26T11:42:48;109325.25;;;18.16;47.34
48555;BME280;34336;48.270;16.716;2023-02-26T11:45:17;109325.25;;;18.16;48.48
48555;BME280;34336;48.270;16.716;2023-02-26T11:47:46;109325.25;;;18.16;48.66
48555;BME280;34336;48.270;16.716;2023-02-26T11:50:17;109325.25;;;18.16;47.66
48555;BME280;34336;48.270;16.716;2023-02-26T11:52:53;109325.25;;;18.16;48.37
48555;BME280;34336;48.270;16.716;2023-02-26T11:55:26;109325.25;;;18.16;49.01
48555;BME280;34336;48.270;16.716;2023-02-26T11:57:55;109325.25;;;18.16;49.46
48555;BME280;34336;48.270;16.716;2023-02-26T12:00:28;109325.25;;;18.16;50.19
48555;BME280;34336;48.270;16.716;2023-02-26T12:03:00;109325.25;;;18.16;50.38
48555;BME280;34336;48.270;16.716;2023-02-26T12:05:30;109325.25;;;18.16;51.36
48555;BME280;34336;48.270;16.716;2023-02-26T12:07:57;109325.25;;;18.16;52.72
48555;BME280;34336;48.270;16.716;2023-02-26T12:10:30;109325.25;;;18.16;54.63
48555;BME280;34336;48.270;16.716;2023-02-26T12:13:10;109325.25;;;18.16;55.63
48555;BME280;34336;48.270;16.716;2023-02-26T12:16:07;109325.25;;;18.16;55.40
48555;BME280;34336;48.270;16.716;2023-02-26T12:18:48;109325.25;;;18.16;55.04
48555;BME280;34336;48.270;16.716;2023-02-26T12:24:48;109325.25;;;18.16;54.93
48555;BME280;34336;48.270;16.716;2023-02-26T12:35:29;109325.25;;;18.16;54.87
48555;BME280;34336;48.270;16.716;2023-02-26T12:40:42;109325.25;;;18.16;56.02
48555;BME280;34336;48.270;16.716;2023-02-26T12:48:41;109325.25;;;18.16;55.36
48555;BME280;34336;48.270;16.716;2023-02-26T12:51:31;109325.25;;;18.16;56.40
48555;BME280;34336;48.270;16.716;2023-02-26T12:54:24;109325.25;;;18.16;58.96
48555;BME280;34336;48.270;16.716;2023-02-26T13:13:10;109325.25;;;18.16;61.13
48555;BME280;34336;48.270;16.716;2023-02-26T13:21:50;109325.25;;;18.16;61.96
48555;BME280;34336;48.270;16.716;2023-02-26T13:24:37;109325.25;;;18.16;62.55
48555;BME280;34336;48.270;16.716;2023-02-26T13:27:07;109325.25;;;18.16;62.46
48555;BME280;34336;48.270;16.716;2023-02-26T13:29:48;109325.25;;;18.16;64.11
48555;BME280;34336;48.270;16.716;2023-02-26T13:32:19;109325.25;;;18.16;64.88
48555;BME280;34336;48.270;16.716;2023-02-26T13:34:56;109325.25;;;18.16;65.55
48555;BME280;34336;48.270;16.716;2023-02-26T13:37:45;109325.25;;;18.16;63.60
48555;BME280;34336;48.270;16.716;2023-02-26T13:48:08;109325.25;;;18.16;62.48
48555;BME280;34336;48.270;16.716;2023-02-26T13:58:47;109325.25;;;18.16;61.09
48555;BME280;34336;48.270;16.716;2023-02-26T14:01:15;109325.25;;;18.16;60.73
48555;BME280;34336;48.270;16.716;2023-02-26T14:06:42;109325.25;;;18.16;59.77
48555;BME280;34336;48.270;16.716;2023-02-26T14:24:57;109325.25;;;18.16;58.54
48555;BME280;34336;48.270;16.716;2023-02-26T14:33:14;109325.25;;;18.16;59.57
48555;BME280;34336;48.270;16.716;2023-02-26T14:35:46;109325.25;;;18.16;58.09
48555;BME280;34336;48.270;16.716;2023-02-26T14:38:27;109325.25;;;18.16;57.85
48555;BME280;34336;48.270;16.716;2023-02-26T14:41:05;109325.25;;;18.16;55.50
48555;BME280;34336;48.270;16.716;2023-02-26T14:43:40;109325.25;;;18.16;56.14
48555;BME280;34336;48.270;16.716;2023-02-26T14:46:09;109325.25;;;18.16;56.40
48555;BME280;34336;48.270;16.716;2023-02-26T14:48:37;109325.25;;;18.16;55.92
48555;BME280;34336;48.270;16.716;2023-02-26T14:54:12;109325.25;;;18.16;55.97
48555;BME280;34336;48.270;16.716;2023-02-26T15:02:23;109325.25;;;18.16;55.63
48555;BME280;34336;48.270;16.716;2023-02-26T15:13:12;109325.25;;;18.16;56.57
48555;BME280;34336;48.270;16.716;2023-02-26T15:23:49;109325.25;;;18.16;56.40
48555;BME280;34336;48.270;16.716;2023-02-26T15:28:51;109325.25;;;18.16;57.38
48555;BME280;34336;48.270;16.716;2023-02-26T15:31:21;109325.25;;;18.16;57.10
48555;BME280;34336;48.270;16.716;2023-02-26T15:33:55;109325.25;;;18.16;56.39
48555;BME280;34336;48.270;16.716;2023-02-26T15:36:23;109325.25;;;18.16;56.86
48555;BME280;34336;48.270;16.716;2023-02-26T15:38:59;109325.25;;;18.16;56.81
48555;BME280;34336;48.270;16.716;2023-02-26T15:41:28;109325.25;;;18.16;57.40
48555;BME280;34336;48.270;16.716;2023-02-26T15:44:10;109325.25;;;18.16;57.12
48555;BME280;34336;48.270;16.716;2023-02-26T15:46:43;109325.25;;;18.16;58.22
48555;BME280;34336;48.270;16.716;2023-02-26T15:49:17;109325.25;;;18.16;57.53
48555;BME280;34336;48.270;16.716;2023-02-26T15:51:46;109325.25;;;18.16;58.04